Time;durP1;ratioP1;P1;durP2;ratioP2;P2;SDS_P1;SDS_P2;PMS_P1;PMS_P2;Temp;Humidity;BMP_temperature;BMP_pressure;BME280_temperature;BME280_humidity;BME280_pressure;Samples;Min_cycle;Max_cycle;Signal;HPM_P1;HPM_P2
2022/04/10 00:01:20;;;;;;;2.25;1.30;;;23.50;34.10;;;;;;5013956;28;20896;-65
2022/04/10 00:03:46;;;;;;;1.57;1.17;;;23.60;34.10;;;;;;5014184;28;20397;-65
2022/04/10 00:06:11;;;;;;;1.67;1.20;;;23.60;34.10;;;;;;5013515;28;20428;-65
2022/04/10 00:08:37;;;;;;;2.13;1.17;;;23.50;34.00;;;;;;5012874;28;20392;-65
2022/04/10 00:11:03;;;;;;;1.55;1.20;;;23.50;34.30;;;;;;5014003;28;20781;-64
2022/04/10 00:13:29;;;;;;;2.22;1.15;;;23.50;34.20;;;;;;5012765;28;20400;-65
2022/04/10 00:15:54;;;;;;;1.87;1.30;;;23.50;34.30;;;;;;5013855;28;20470;-64
2022/04/10 00:18:20;;;;;;;2.03;1.37;;;23.50;34.20;;;;;;5012076;28;20476;-64
2022/04/10 00:20:46;;;;;;;1.52;1.20;;;23.50;34.20;;;;;;5013834;28;20405;-64
2022/04/10 00:23:11;;;;;;;2.23;1.50;;;23.50;34.20;;;;;;5013671;28;20389;-64
2022/04/10 00:25:37;;;;;;;1.75;1.30;;;23.40;34.20;;;;;;5013668;28;20448;-64
2022/04/10 00:28:03;;;;;;;1.90;1.10;;;23.40;34.20;;;;;;5013386;28;20403;-65
2022/04/10 00:30:32;;;;;;;1.90;1.40;;;23.50;34.30;;;;;;5013534;28;20381;-65
2022/04/10 00:32:58;;;;;;;1.83;1.25;;;23.40;34.80;;;;;;5013521;28;20951;-65
2022/04/10 00:35:24;;;;;;;1.87;1.20;;;23.40;34.40;;;;;;5013574;28;20424;-65
2022/04/10 00:37:49;;;;;;;1.70;1.30;;;23.40;34.20;;;;;;5013488;28;20388;-65
2022/04/10 00:40:15;;;;;;;1.73;1.30;;;23.40;34.20;;;;;;5011757;28;20400;-65
2022/04/10 00:42:48;;;;;;;2.03;1.13;;;23.40;34.20;;;;;;5012508;28;20397;-64
2022/04/10 00:45:14;;;;;;;2.33;1.15;;;23.40;34.10;;;;;;5013316;28;20401;-65
2022/04/10 00:47:39;;;;;;;1.88;1.10;;;23.40;34.10;;;;;;5013361;28;20877;-65
2022/04/10 00:50:07;;;;;;;1.60;1.20;;;23.40;34.10;;;;;;5011677;28;20411;-65
2022/04/10 00:52:34;;;;;;;1.55;1.00;;;23.40;34.10;;;;;;5013006;28;20396;-65
2022/04/10 00:55:00;;;;;;;1.85;1.20;;;23.30;34.20;;;;;;5011965;28;20389;-65
2022/04/10 00:57:26;;;;;;;1.38;1.00;;;23.30;34.40;;;;;;5013104;28;20393;-65
2022/04/10 00:59:52;;;;;;;2.70;1.20;;;23.30;34.10;;;;;;5013197;28;20401;-65
2022/04/10 01:02:18;;;;;;;2.20;1.10;;;23.30;34.10;;;;;;5012363;28;20432;-64
2022/04/10 01:04:46;;;;;;;1.83;1.10;;;23.30;34.10;;;;;;5012949;28;20427;-65
2022/04/10 01:07:13;;;;;;;1.42;1.00;;;23.30;34.20;;;;;;5012631;28;20425;-65
2022/04/10 01:09:40;;;;;;;2.35;1.15;;;23.30;34.20;;;;;;5012309;28;20503;-64
2022/04/10 01:12:09;;;;;;;2.35;1.20;;;23.30;34.10;;;;;;5027611;28;20401;-65
2022/04/10 01:14:39;;;;;;;1.57;1.10;;;23.30;34.20;;;;;;5012615;28;20395;-65
2022/04/10 01:17:09;;;;;;;3.20;1.42;;;23.30;34.10;;;;;;5012773;28;20393;-64
2022/04/10 01:19:37;;;;;;;1.65;1.17;;;23.30;34.10;;;;;;5012655;28;20431;-64
2022/04/10 01:22:07;;;;;;;1.50;1.20;;;23.20;34.10;;;;;;5012394;28;20496;-65
2022/04/10 01:24:37;;;;;;;1.55;1.10;;;23.20;34.30;;;;;;5012450;28;20393;-64
2022/04/10 01:27:04;;;;;;;2.63;1.08;;;23.20;34.30;;;;;;5012505;28;20431;-64
2022/04/10 01:29:30;;;;;;;1.77;1.30;;;23.20;34.60;;;;;;5012527;28;20373;-64
2022/04/10 01:31:56;;;;;;;2.05;1.20;;;23.20;34.40;;;;;;5027648;28;20393;-64
2022/04/10 01:34:22;;;;;;;1.50;1.10;;;23.10;34.40;;;;;;5011747;28;20982;-65
2022/04/10 01:36:48;;;;;;;2.10;1.50;;;23.10;34.40;;;;;;5012448;28;20469;-64
2022/04/10 01:39:15;;;;;;;1.60;1.23;;;23.10;34.60;;;;;;5012009;28;20869;-64
2022/04/10 01:41:41;;;;;;;2.13;1.10;;;23.10;34.40;;;;;;5012435;28;20427;-64
2022/04/10 01:44:09;;;;;;;1.90;1.30;;;23.10;35.00;;;;;;5011980;28;20420;-65
2022/04/10 01:46:35;;;;;;;1.90;1.20;;;23.10;34.20;;;;;;5011993;28;20416;-64
2022/04/10 01:49:03;;;;;;;1.52;1.08;;;23.10;34.20;;;;;;5012153;28;20385;-64
2022/04/10 01:51:29;;;;;;;3.00;1.20;;;23.10;34.40;;;;;;5012270;28;20381;-64
2022/04/10 01:53:55;;;;;;;2.03;1.10;;;23.10;34.40;;;;;;5012002;28;20727;-64
2022/04/10 01:56:22;;;;;;;1.80;1.15;;;23.00;34.40;;;;;;5011579;28;20389;-64
2022/04/10 01:58:48;;;;;;;2.03;1.10;;;23.00;34.40;;;;;;5012084;28;20816;-64
2022/04/10 02:01:16;;;;;;;2.35;1.23;;;23.00;34.50;;;;;;5011800;28;20493;-64
2022/04/10 02:03:43;;;;;;;1.92;1.10;;;23.00;34.40;;;;;;5012026;28;20443;-64
2022/04/10 02:06:11;;;;;;;1.75;1.00;;;23.00;34.30;;;;;;5010269;28;20897;-65
2022/04/10 02:08:37;;;;;;;1.73;1.08;;;23.00;34.30;;;;;;5011698;28;20395;-64
2022/04/10 02:11:20;;;;;;;1.67;1.23;;;23.00;34.20;;;;;;5011799;28;20476;-64
2022/04/10 02:13:47;;;;;;;2.25;1.20;;;23.00;34.20;;;;;;5010611;28;20393;-64
2022/04/10 02:16:17;;;;;;;1.63;1.15;;;23.00;34.20;;;;;;5011648;28;20404;-65
2022/04/10 02:18:43;;;;;;;2.28;1.30;;;22.90;34.10;;;;;;5011700;28;20393;-64
2022/04/10 02:21:09;;;;;;;2.20;1.33;;;22.90;34.20;;;;;;5026765;28;20397;-64
2022/04/10 02:23:35;;;;;;;1.75;1.42;;;22.90;34.10;;;;;;5010513;28;20388;-64
2022/04/10 02:26:01;;;;;;;1.77;1.30;;;22.90;34.00;;;;;;5011115;28;20470;-64
2022/04/10 02:28:27;;;;;;;2.50;1.40;;;22.90;34.00;;;;;;5010935;28;20385;-65
2022/04/10 02:30:52;;;;;;;1.88;1.20;;;22.90;34.00;;;;;;5010524;28;20424;-65
2022/04/10 02:33:18;;;;;;;1.80;1.30;;;22.90;33.90;;;;;;5011631;28;20438;-64
2022/04/10 02:35:44;;;;;;;2.30;1.30;;;22.90;33.90;;;;;;5011662;28;20397;-64
2022/04/10 02:38:10;;;;;;;1.98;1.38;;;22.80;33.90;;;;;;5011301;28;20722;-65
2022/04/10 02:40:36;;;;;;;1.75;1.30;;;22.90;34.10;;;;;;5011129;28;20396;-65
2022/04/10 02:43:01;;;;;;;2.03;1.20;;;22.90;34.00;;;;;;5011494;28;20441;-64
2022/04/10 02:45:27;;;;;;;1.70;1.20;;;22.90;34.10;;;;;;5011517;28;20396;-64
2022/04/10 02:47:53;;;;;;;2.00;1.33;;;22.80;33.90;;;;;;5011485;28;20405;-64
2022/04/10 02:50:19;;;;;;;1.70;1.33;;;22.80;34.00;;;;;;5010929;28;20420;-65
2022/04/10 02:52:44;;;;;;;1.77;1.40;;;22.80;34.00;;;;;;5011609;28;20491;-64
2022/04/10 02:55:12;;;;;;;2.00;1.20;;;22.80;33.90;;;;;;5010605;28;20425;-64
2022/04/10 02:57:38;;;;;;;1.90;1.20;;;22.80;34.00;;;;;;5011503;28;20727;-64
2022/04/10 03:00:04;;;;;;;1.90;1.15;;;22.80;34.00;;;;;;5011352;28;20393;-64
2022/04/10 03:02:30;;;;;;;1.90;1.30;;;22.80;33.80;;;;;;5010643;28;20761;-65
2022/04/10 03:04:56;;;;;;;1.70;1.40;;;22.80;33.90;;;;;;5012237;28;20529;-65
2022/04/10 03:07:21;;;;;;;1.75;1.20;;;22.80;33.90;;;;;;5015046;28;20416;-64
2022/04/10 03:09:47;;;;;;;1.70;1.30;;;22.80;33.90;;;;;;5015156;28;20399;-64
2022/04/10 03:12:13;;;;;;;1.60;1.40;;;22.80;33.90;;;;;;5014911;28;20393;-64
2022/04/10 03:14:38;;;;;;;1.65;1.20;;;22.80;33.80;;;;;;5014829;28;20385;-64
2022/04/10 03:17:05;;;;;;;1.70;1.30;;;22.80;33.80;;;;;;5014907;28;20415;-64
2022/04/10 03:19:31;;;;;;;1.77;1.20;;;22.80;33.70;;;;;;5030195;28;20534;-64
2022/04/10 03:21:56;;;;;;;2.08;1.17;;;22.80;33.70;;;;;;5014981;28;20472;-64
2022/04/10 03:24:22;;;;;;;2.03;1.30;;;22.80;33.70;;;;;;5014341;28;20400;-65
2022/04/10 03:26:47;;;;;;;2.30;1.25;;;22.80;33.80;;;;;;5014533;28;20893;-65
2022/04/10 03:29:13;;;;;;;1.60;1.30;;;22.80;33.80;;;;;;5014753;28;20547;-65
2022/04/10 03:31:39;;;;;;;1.95;1.15;;;22.80;33.90;;;;;;5014763;28;20397;-65
2022/04/10 03:34:05;;;;;;;1.85;1.40;;;22.80;33.90;;;;;;5014666;28;20389;-65
2022/04/10 03:36:31;;;;;;;1.70;1.10;;;22.80;33.90;;;;;;5014263;28;20430;-65
2022/04/10 03:38:57;;;;;;;1.50;1.00;;;22.70;33.80;;;;;;5014671;28;20479;-65
2022/04/10 03:41:23;;;;;;;1.63;1.10;;;22.80;33.90;;;;;;5014280;28;20428;-64
2022/04/10 03:43:48;;;;;;;2.22;1.17;;;22.70;33.90;;;;;;5013966;28;20391;-64
2022/04/10 03:46:14;;;;;;;2.20;1.10;;;22.70;33.90;;;;;;5013992;28;20417;-65
2022/04/10 03:48:39;;;;;;;2.10;1.10;;;22.70;33.90;;;;;;5014087;28;20781;-64
2022/04/10 03:51:05;;;;;;;1.52;1.15;;;22.70;33.90;;;;;;5014310;28;20807;-64
2022/04/10 03:53:33;;;;;;;2.87;1.40;;;22.70;33.90;;;;;;5014233;28;20385;-64
2022/04/10 03:55:58;;;;;;;1.27;1.00;;;22.70;33.80;;;;;;5013090;28;20423;-64
2022/04/10 03:58:24;;;;;;;1.60;1.10;;;22.70;33.80;;;;;;5012394;28;20397;-64
2022/04/10 04:00:50;;;;;;;2.00;1.10;;;22.70;33.90;;;;;;5014026;28;20407;-64
2022/04/10 04:03:16;;;;;;;2.10;1.27;;;22.70;33.80;;;;;;5014057;28;20405;-65
2022/04/10 04:05:41;;;;;;;2.92;1.33;;;22.60;33.70;;;;;;5014094;28;20412;-65
2022/04/10 04:08:07;;;;;;;2.43;1.20;;;22.70;33.80;;;;;;5014047;28;20443;-64
2022/04/10 04:10:34;;;;;;;1.77;1.30;;;22.70;33.80;;;;;;5013563;28;20793;-64
2022/04/10 04:13:00;;;;;;;2.05;1.10;;;22.60;33.80;;;;;;5013761;28;20408;-64
2022/04/10 04:15:25;;;;;;;2.45;1.30;;;22.60;34.40;;;;;;5013837;28;20389;-64
2022/04/10 04:17:51;;;;;;;2.10;1.23;;;22.60;33.90;;;;;;5012603;28;20404;-64
2022/04/10 04:20:17;;;;;;;1.52;1.10;;;22.60;33.90;;;;;;5013525;28;21007;-64
2022/04/10 04:22:42;;;;;;;1.83;1.30;;;22.60;33.90;;;;;;5013677;28;20900;-64
2022/04/10 04:25:08;;;;;;;2.08;1.35;;;22.60;33.80;;;;;;5013671;28;20869;-64
2022/04/10 04:27:34;;;;;;;2.60;1.40;;;22.60;33.80;;;;;;5013443;28;20920;-64
2022/04/10 04:30:02;;;;;;;2.70;1.53;;;22.60;33.80;;;;;;5012222;28;20408;-64
2022/04/10 04:32:28;;;;;;;2.20;1.30;;;22.60;33.80;;;;;;5013059;28;20397;-64
2022/04/10 04:34:54;;;;;;;2.03;1.40;;;22.60;33.80;;;;;;5013594;28;20397;-64
2022/04/10 04:37:19;;;;;;;2.40;1.60;;;22.60;34.40;;;;;;5013402;28;20397;-64
2022/04/10 04:39:45;;;;;;;2.50;1.40;;;22.60;33.80;;;;;;5013484;28;20403;-64
2022/04/10 04:42:10;;;;;;;2.17;1.63;;;22.60;33.70;;;;;;5013357;28;20385;-64
2022/04/10 04:44:36;;;;;;;2.08;1.50;;;22.60;33.60;;;;;;5012930;28;20403;-64
2022/04/10 04:47:02;;;;;;;2.67;1.67;;;22.60;33.80;;;;;;5013203;28;20512;-65
2022/04/10 04:49:28;;;;;;;2.63;1.60;;;22.60;33.80;;;;;;5013378;28;20389;-65
2022/04/10 04:51:53;;;;;;;2.27;1.60;;;22.50;33.80;;;;;;5013273;28;20396;-64
2022/04/10 04:54:19;;;;;;;2.35;1.55;;;22.60;33.80;;;;;;5012903;28;20440;-64
2022/04/10 04:56:45;;;;;;;3.53;1.70;;;22.50;33.90;;;;;;5012978;28;20431;-64
2022/04/10 04:59:12;;;;;;;2.58;1.90;;;22.50;33.90;;;;;;5013004;28;20435;-64
2022/04/10 05:01:41;;;;;;;2.87;1.70;;;22.50;33.90;;;;;;5012941;28;20423;-64
2022/04/10 05:04:09;;;;;;;2.42;1.85;;;22.50;33.70;;;;;;5011648;28;20412;-64
2022/04/10 05:06:35;;;;;;;1.95;1.70;;;22.50;33.70;;;;;;5027638;28;20936;-64
2022/04/10 05:09:01;;;;;;;2.95;1.80;;;22.50;33.80;;;;;;5012908;28;20393;-64
2022/04/10 05:11:27;;;;;;;2.17;1.80;;;22.50;33.80;;;;;;5011517;28;20919;-64
2022/04/10 05:13:53;;;;;;;2.75;2.08;;;22.50;33.80;;;;;;5012759;28;20392;-64
2022/04/10 05:16:18;;;;;;;2.53;1.80;;;22.50;33.70;;;;;;5011860;28;20416;-65
2022/04/10 05:18:44;;;;;;;2.40;1.70;;;22.50;33.80;;;;;;5012390;28;20396;-64
2022/04/10 05:21:10;;;;;;;2.70;1.80;;;22.50;33.70;;;;;;5012641;28;20885;-64
2022/04/10 05:23:35;;;;;;;2.57;1.70;;;22.50;33.80;;;;;;5012713;28;20393;-64
2022/04/10 05:26:02;;;;;;;3.65;1.88;;;22.50;33.70;;;;;;5012554;28;20424;-64
2022/04/10 05:28:28;;;;;;;2.40;1.63;;;22.50;33.60;;;;;;5026920;28;20412;-64
2022/04/10 05:30:54;;;;;;;2.67;1.85;;;22.50;33.70;;;;;;5012247;28;20401;-64
2022/04/10 05:33:20;;;;;;;3.10;1.83;;;22.50;33.70;;;;;;5012376;28;20903;-64
2022/04/10 05:35:47;;;;;;;2.10;1.70;;;22.50;33.70;;;;;;5012466;28;20424;-64
2022/04/10 05:38:13;;;;;;;2.28;1.70;;;22.50;33.80;;;;;;5012368;28;20400;-64
2022/04/10 05:40:38;;;;;;;2.67;1.90;;;22.50;33.80;;;;;;5011802;28;20393;-64
2022/04/10 05:43:04;;;;;;;2.63;2.07;;;22.50;33.80;;;;;;5012246;28;20400;-64
2022/04/10 05:45:30;;;;;;;2.50;1.90;;;22.40;33.80;;;;;;5012191;28;20475;-64
2022/04/10 05:47:56;;;;;;;3.00;1.83;;;22.50;33.80;;;;;;5012273;28;20734;-64
2022/04/10 05:50:22;;;;;;;2.30;1.83;;;22.40;33.80;;;;;;5011971;28;20763;-65
2022/04/10 05:52:48;;;;;;;2.67;1.80;;;22.50;33.80;;;;;;5012006;28;20749;-64
2022/04/10 05:55:18;;;;;;;2.75;1.80;;;22.40;33.70;;;;;;5012178;28;20385;-64
2022/04/10 05:57:44;;;;;;;2.60;2.00;;;22.40;33.80;;;;;;5012205;28;20400;-64
2022/04/10 06:00:15;;;;;;;3.70;2.10;;;22.40;33.30;;;;;;5012020;28;20393;-64
2022/04/10 06:02:41;;;;;;;3.85;2.20;;;22.40;32.90;;;;;;5011243;28;20416;-64
2022/04/10 06:05:08;;;;;;;3.03;2.05;;;22.30;32.40;;;;;;5012065;28;20472;-64
2022/04/10 06:07:34;;;;;;;5.40;2.72;;;22.30;32.70;;;;;;5011835;28;20416;-64
2022/04/10 06:10:00;;;;;;;5.07;2.58;;;22.20;33.10;;;;;;5011738;28;20381;-64
2022/04/10 06:12:26;;;;;;;5.90;2.88;;;22.20;33.30;;;;;;5010285;28;20454;-64
2022/04/10 06:14:52;;;;;;;5.97;2.60;;;22.20;34.10;;;;;;5011983;28;20861;-64
2022/04/10 06:17:17;;;;;;;5.10;2.70;;;22.20;34.10;;;;;;5011677;28;20412;-64
2022/04/10 06:19:43;;;;;;;4.88;2.60;;;22.20;34.20;;;;;;5011809;28;20389;-64
2022/04/10 06:22:09;;;;;;;6.17;2.30;;;22.10;34.50;;;;;;5011751;28;20820;-63
2022/04/10 06:24:35;;;;;;;4.88;2.40;;;22.10;34.30;;;;;;5011298;28;20395;-64
2022/04/10 06:27:01;;;;;;;4.70;2.25;;;22.10;34.30;;;;;;5011593;28;20416;-63
2022/04/10 06:29:27;;;;;;;4.55;2.38;;;22.10;34.20;;;;;;5011742;28;20440;-64
2022/04/10 06:31:53;;;;;;;4.65;2.25;;;22.10;34.30;;;;;;5011158;28;20404;-64
2022/04/10 06:34:19;;;;;;;4.57;2.28;;;22.10;34.40;;;;;;5010951;28;20797;-64
2022/04/10 06:36:45;;;;;;;3.00;2.30;;;22.10;34.20;;;;;;5011350;28;20435;-64
2022/04/10 06:39:10;;;;;;;6.32;2.10;;;22.10;34.20;;;;;;5011622;28;20884;-64
2022/04/10 06:41:36;;;;;;;4.60;2.10;;;22.10;34.10;;;;;;5030479;28;20405;-64
2022/04/10 06:44:02;;;;;;;4.63;1.90;;;22.10;34.20;;;;;;5015575;28;20951;-63
2022/04/10 06:46:28;;;;;;;4.10;1.90;;;22.10;34.20;;;;;;5012487;28;20412;-63
2022/04/10 06:48:54;;;;;;;6.47;2.10;;;22.10;34.90;;;;;;5005297;28;20874;-64
2022/04/10 06:51:21;;;;;;;3.63;1.92;;;22.10;34.90;;;;;;5004050;28;20409;-64
2022/04/10 06:53:48;;;;;;;3.53;1.98;;;22.00;34.80;;;;;;5005378;28;20753;-64
2022/04/10 06:56:14;;;;;;;3.60;2.05;;;22.00;35.40;;;;;;5005783;28;20762;-64
2022/04/10 06:58:40;;;;;;;4.50;2.33;;;22.00;34.60;;;;;;4999302;28;20956;-63
2022/04/10 07:01:06;;;;;;;4.30;2.33;;;22.00;34.70;;;;;;4996684;28;20402;-65
2022/04/10 07:03:32;;;;;;;5.50;2.20;;;22.00;34.70;;;;;;5009218;28;20545;-64
2022/04/10 07:05:57;;;;;;;4.22;2.08;;;22.00;34.70;;;;;;5011863;28;20765;-64
2022/04/10 07:08:23;;;;;;;3.33;2.03;;;21.90;34.70;;;;;;5011616;28;20411;-65
2022/04/10 07:10:49;;;;;;;4.13;2.25;;;22.00;35.20;;;;;;5014414;28;20980;-64
2022/04/10 07:13:19;;;;;;;5.00;2.40;;;22.00;35.20;;;;;;5005900;28;20548;-65
2022/04/10 07:15:46;;;;;;;4.43;2.20;;;22.00;35.60;;;;;;4996825;28;20402;-64
2022/04/10 07:18:11;;;;;;;4.80;2.45;;;22.10;35.80;;;;;;4993983;28;20394;-65
2022/04/10 07:20:37;;;;;;;6.18;2.50;;;22.10;34.90;;;;;;4995025;28;20745;-64
2022/04/10 07:25:47;;;;;;;9.03;2.40;;;22.20;35.40;;;;;;4995584;28;20453;-64
2022/04/10 07:28:13;;;;;;;6.50;2.33;;;22.20;35.40;;;;;;4995185;28;20822;-64
2022/04/10 07:30:39;;;;;;;4.68;2.30;;;22.10;35.40;;;;;;4994813;28;20881;-64
2022/04/10 07:33:04;;;;;;;7.60;2.55;;;22.10;35.10;;;;;;4994852;28;20898;-64
2022/04/10 07:35:30;;;;;;;7.88;2.45;;;22.10;35.00;;;;;;4995034;28;20387;-64
2022/04/10 07:37:56;;;;;;;7.35;2.58;;;22.10;34.90;;;;;;4995132;28;20395;-64
2022/04/10 07:40:22;;;;;;;4.43;2.20;;;22.10;34.80;;;;;;4993420;28;20389;-64
2022/04/10 07:42:48;;;;;;;4.97;2.17;;;22.10;34.70;;;;;;4998467;28;20754;-64
2022/04/10 07:47:25;;;;;;;6.72;2.35;;;22.10;34.70;;;;;;5006214;28;20496;-63
2022/04/10 07:48:00;;;;;;;4.35;2.22;;;22.20;34.70;;;;;;5004556;28;20401;-64
2022/04/10 07:50:28;;;;;;;6.13;2.45;;;22.20;34.70;;;;;;5002286;28;20393;-64
2022/04/10 07:52:54;;;;;;;6.25;2.53;;;22.20;34.60;;;;;;5003216;28;20396;-64
2022/04/10 07:55:21;;;;;;;6.27;2.60;;;22.20;34.40;;;;;;5004364;28;20397;-64
2022/04/10 07:57:48;;;;;;;4.97;2.50;;;22.20;34.40;;;;;;5001029;28;20402;-65
2022/04/10 08:00:14;;;;;;;3.73;2.30;;;22.20;34.30;;;;;;5005118;28;20398;-64
2022/04/10 08:02:44;;;;;;;5.00;2.50;;;22.20;34.20;;;;;;5003505;28;20427;-64
2022/04/10 08:05:09;;;;;;;4.40;2.55;;;22.20;34.20;;;;;;5005231;28;20393;-63
2022/04/10 08:07:35;;;;;;;5.20;2.50;;;22.20;34.20;;;;;;5001163;28;20433;-63
2022/04/10 08:10:01;;;;;;;5.22;2.63;;;22.20;34.20;;;;;;5002604;28;20393;-63
2022/04/10 08:12:27;;;;;;;4.53;2.30;;;22.20;34.20;;;;;;5003195;28;20835;-64
2022/04/10 08:14:53;;;;;;;3.60;2.30;;;22.30;34.20;;;;;;5005298;28;20456;-63
2022/04/10 08:17:18;;;;;;;4.00;2.30;;;22.20;34.20;;;;;;5003984;28;20397;-64
2022/04/10 08:19:44;;;;;;;3.42;2.28;;;22.30;34.20;;;;;;5004526;28;20409;-64
2022/04/10 08:22:10;;;;;;;4.47;2.20;;;22.30;34.20;;;;;;5004034;28;20883;-63
2022/04/10 08:24:36;;;;;;;4.15;2.28;;;22.30;34.10;;;;;;5001591;28;20396;-64
2022/04/10 08:27:03;;;;;;;3.80;1.90;;;22.30;34.10;;;;;;5000903;28;20422;-64
2022/04/10 08:29:29;;;;;;;3.10;2.10;;;22.30;34.10;;;;;;5003095;28;20499;-64
2022/04/10 08:31:55;;;;;;;4.63;2.28;;;22.30;34.10;;;;;;5002017;28;20435;-64
2022/04/10 08:34:20;;;;;;;4.07;2.47;;;22.30;34.00;;;;;;5003200;28;20416;-65
2022/04/10 08:36:46;;;;;;;3.70;2.20;;;22.30;34.00;;;;;;5005793;28;21087;-64
2022/04/10 08:39:12;;;;;;;4.07;2.20;;;22.30;34.20;;;;;;5004374;28;20392;-64
2022/04/10 08:41:38;;;;;;;5.23;2.30;;;22.20;34.30;;;;;;5004640;28;20401;-64
2022/04/10 08:44:05;;;;;;;10.07;2.70;;;22.10;35.40;;;;;;4998716;28;20395;-64
2022/04/10 08:46:33;;;;;;;11.57;3.95;;;22.20;35.30;;;;;;5001129;28;20468;-64
2022/04/10 08:48:59;;;;;;;12.55;3.60;;;22.30;35.60;;;;;;5002510;28;20395;-64
2022/04/10 08:51:27;;;;;;;7.90;3.40;;;22.30;36.40;;;;;;5002835;28;20412;-64
2022/04/10 08:53:54;;;;;;;11.80;3.20;;;22.30;36.40;;;;;;5005099;28;20389;-65
2022/04/10 08:56:22;;;;;;;9.90;3.08;;;22.40;36.50;;;;;;4984470;28;20405;-65
2022/04/10 08:58:48;;;;;;;9.50;3.00;;;22.40;36.40;;;;;;5002712;28;20395;-66
2022/04/10 09:01:19;;;;;;;7.95;3.45;;;22.40;36.40;;;;;;5011712;28;20750;-64
2022/04/10 09:03:46;;;;;;;8.55;2.80;;;22.40;36.40;;;;;;5002922;28;20409;-65
2022/04/10 09:06:12;;;;;;;5.97;2.50;;;22.40;36.40;;;;;;5003155;28;20408;-64
2022/04/10 09:08:38;;;;;;;6.22;2.63;;;22.40;36.10;;;;;;5002825;28;20495;-64
2022/04/10 09:11:08;;;;;;;5.68;2.40;;;22.40;35.30;;;;;;5000278;28;20437;-65
2022/04/10 09:13:40;;;;;;;5.75;2.20;;;22.40;35.90;;;;;;5002002;28;20403;-80
2022/04/10 09:16:11;;;;;;;5.15;2.03;;;22.50;35.80;;;;;;5003330;28;20387;-64
2022/04/10 09:18:54;;;;;;;5.45;2.20;;;22.50;35.80;;;;;;5000364;28;20400;-64
2022/04/10 09:21:29;;;;;;;5.88;2.20;;;22.60;35.80;;;;;;4998919;28;20406;-64
2022/04/10 09:24:00;;;;;;;5.78;2.25;;;22.60;35.60;;;;;;4996744;28;20391;-65
2022/04/10 09:26:41;;;;;;;5.40;2.05;;;22.70;35.70;;;;;;4997901;28;20412;-64
2022/04/10 09:29:07;;;;;;;6.75;2.17;;;22.70;35.60;;;;;;5015935;28;20412;-65
2022/04/10 09:31:34;;;;;;;4.50;2.10;;;22.70;35.60;;;;;;4999551;28;20388;-64
2022/04/10 09:34:04;;;;;;;4.53;1.83;;;22.70;35.60;;;;;;5000267;28;20401;-64
2022/04/10 09:36:44;;;;;;;2.78;1.75;;;22.70;35.50;;;;;;4998878;28;20394;-64
2022/04/10 09:39:15;;;;;;;5.32;1.90;;;22.70;35.10;;;;;;5004009;28;20385;-64
2022/04/10 09:41:44;;;;;;;5.53;1.75;;;22.70;35.10;;;;;;4999426;28;20390;-64
2022/04/10 09:44:11;;;;;;;3.80;1.75;;;22.70;34.90;;;;;;5005817;28;20401;-64
2022/04/10 09:46:38;;;;;;;3.30;1.58;;;22.80;34.20;;;;;;5002734;28;21284;-65
2022/04/10 09:49:10;;;;;;;2.40;1.50;;;22.80;34.00;;;;;;4999546;28;20524;-64
2022/04/10 09:51:36;;;;;;;3.73;1.70;;;22.80;34.40;;;;;;5001595;28;20401;-64
2022/04/10 09:54:04;;;;;;;3.10;1.50;;;22.80;34.20;;;;;;5001754;28;20381;-64
2022/04/10 09:56:30;;;;;;;3.25;1.70;;;22.80;34.50;;;;;;5003263;28;20397;-64
2022/04/10 09:58:59;;;;;;;3.13;1.70;;;22.80;34.30;;;;;;4998421;28;20399;-65
2022/04/10 10:01:28;;;;;;;2.38;1.70;;;22.80;34.50;;;;;;5001591;28;20822;-64
2022/04/10 10:03:57;;;;;;;2.25;1.58;;;22.70;34.20;;;;;;5000135;28;20408;-64
2022/04/10 10:06:24;;;;;;;2.08;1.60;;;22.70;34.40;;;;;;5003500;28;20418;-64
2022/04/10 10:08:50;;;;;;;2.50;1.52;;;22.60;34.40;;;;;;4997937;28;20398;-64
2022/04/10 10:11:17;;;;;;;3.40;1.50;;;22.60;34.30;;;;;;5002143;28;20540;-64
2022/04/10 10:13:43;;;;;;;3.00;1.60;;;22.50;34.30;;;;;;5001889;28;20405;-63
2022/04/10 10:16:09;;;;;;;3.38;1.52;;;22.50;34.30;;;;;;5000613;28;20391;-64
2022/04/10 10:18:36;;;;;;;3.30;1.50;;;22.50;34.30;;;;;;4998347;28;20444;-63
2022/04/10 10:21:03;;;;;;;2.90;1.60;;;22.50;34.20;;;;;;4997356;28;20402;-64
2022/04/10 10:23:29;;;;;;;2.53;1.63;;;22.50;34.30;;;;;;4998383;28;20389;-64
2022/04/10 10:26:48;;;;;;;2.83;1.60;;;22.60;34.40;;;;;;4999721;28;20543;-64
2022/04/10 10:29:23;;;;;;;3.70;1.77;;;22.60;34.60;;;;;;4939383;29;20555;-62
2022/04/10 10:32:17;;;;;;;2.40;1.58;;;22.60;34.80;;;;;;4989423;28;20488;-62
2022/04/10 10:34:44;;;;;;;4.68;1.70;;;22.60;34.60;;;;;;4997148;28;20391;-62
2022/04/10 10:37:13;;;;;;;4.93;1.77;;;22.60;34.80;;;;;;4999324;28;20918;-61
2022/04/10 10:39:50;;;;;;;3.72;1.77;;;22.60;34.80;;;;;;4997235;28;20409;-63
2022/04/10 10:42:16;;;;;;;2.08;1.67;;;22.70;34.90;;;;;;4997634;28;21004;-63
2022/04/10 10:44:46;;;;;;;4.27;1.40;;;22.60;35.20;;;;;;5012643;28;20432;-63
2022/04/10 10:47:26;;;;;;;2.40;1.50;;;22.70;35.20;;;;;;5000465;28;20420;-63
2022/04/10 10:49:54;;;;;;;2.50;1.50;;;22.60;35.00;;;;;;5017624;28;20393;-63
2022/04/10 10:52:21;;;;;;;3.17;1.50;;;22.60;35.10;;;;;;5002082;28;20899;-63
2022/04/10 10:54:57;;;;;;;3.40;1.77;;;22.70;35.20;;;;;;5000193;28;20397;-63
2022/04/10 10:57:28;;;;;;;4.05;1.75;;;22.60;35.30;;;;;;5002427;28;20401;-63
2022/04/10 11:00:13;;;;;;;5.97;1.85;;;22.60;34.90;;;;;;5000628;28;20762;-63
2022/04/10 11:02:40;;;;;;;4.45;1.88;;;22.60;35.40;;;;;;4998843;28;20476;-62
2022/04/10 11:05:07;;;;;;;3.65;1.60;;;22.50;35.50;;;;;;4998565;28;20387;-62
2022/04/10 11:07:39;;;;;;;3.23;1.60;;;22.70;36.70;;;;;;4999830;28;20512;-62
2022/04/10 11:10:08;;;;;;;4.18;1.80;;;22.80;35.90;;;;;;4998378;28;20402;-63
2022/04/10 11:12:52;;;;;;;4.05;1.70;;;22.90;35.90;;;;;;4998767;28;20894;-63
2022/04/10 11:15:23;;;;;;;5.25;1.60;;;23.00;35.30;;;;;;4998664;28;20394;-64
2022/04/10 11:17:52;;;;;;;3.85;1.80;;;23.10;35.20;;;;;;4995796;28;20403;-63
2022/04/10 11:20:23;;;;;;;3.17;1.65;;;23.20;35.00;;;;;;4998587;28;20409;-63
2022/04/10 11:22:52;;;;;;;2.90;1.40;;;23.30;35.00;;;;;;4997027;28;20539;-63
2022/04/10 11:25:20;;;;;;;2.92;1.50;;;23.40;34.70;;;;;;4998024;28;20405;-63
2022/04/10 11:28:03;;;;;;;7.20;1.50;;;23.60;34.80;;;;;;5001735;28;20418;-63
2022/04/10 11:30:33;;;;;;;5.30;1.50;;;23.70;34.90;;;;;;5008477;28;20400;-63
2022/04/10 11:32:58;;;;;;;4.32;1.50;;;23.80;34.80;;;;;;5004982;28;20393;-63
2022/04/10 11:35:31;;;;;;;3.43;1.50;;;23.80;34.80;;;;;;5002580;28;20507;-63
2022/04/10 11:37:59;;;;;;;3.25;1.70;;;23.90;34.60;;;;;;5002466;28;20448;-63
2022/04/10 11:40:26;;;;;;;4.45;1.50;;;24.00;34.30;;;;;;4999880;28;20400;-63
2022/04/10 11:42:53;;;;;;;2.63;1.60;;;24.10;34.10;;;;;;5004230;28;20476;-63
2022/04/10 11:45:20;;;;;;;3.42;1.50;;;24.20;33.90;;;;;;5002117;28;20396;-63
2022/04/10 11:47:46;;;;;;;2.20;1.30;;;24.30;33.60;;;;;;5002175;28;20537;-64
2022/04/10 11:50:13;;;;;;;1.83;1.40;;;24.40;33.30;;;;;;5002413;28;20389;-63
2022/04/10 11:52:40;;;;;;;2.83;1.52;;;24.50;33.80;;;;;;5001985;28;20406;-63
2022/04/10 11:55:08;;;;;;;2.75;1.42;;;24.60;33.10;;;;;;5001879;28;20398;-63
2022/04/10 11:57:38;;;;;;;3.53;1.50;;;24.70;32.80;;;;;;5000210;28;20396;-63
2022/04/10 12:00:09;;;;;;;2.55;1.50;;;24.70;32.80;;;;;;4995555;28;20881;-63
2022/04/10 12:02:36;;;;;;;3.20;1.40;;;24.80;32.80;;;;;;5015119;28;20417;-63
2022/04/10 12:05:03;;;;;;;2.70;1.40;;;24.90;32.80;;;;;;4997316;28;20394;-63
2022/04/10 12:07:29;;;;;;;2.80;1.23;;;24.90;32.60;;;;;;5001896;28;20433;-63
2022/04/10 12:09:55;;;;;;;2.05;1.23;;;24.80;32.50;;;;;;4998868;28;20732;-64
2022/04/10 12:12:33;;;;;;;2.40;1.40;;;24.70;32.50;;;;;;5003207;28;20409;-64
2022/04/10 12:14:59;;;;;;;4.88;1.50;;;24.60;32.50;;;;;;5001979;28;20402;-63
2022/04/10 12:17:24;;;;;;;4.28;1.25;;;24.50;32.80;;;;;;5005620;28;20396;-63
2022/04/10 12:19:55;;;;;;;2.77;1.20;;;24.40;32.80;;;;;;5002348;28;20389;-63
2022/04/10 12:22:24;;;;;;;3.70;1.30;;;24.30;32.90;;;;;;5000626;28;20406;-63
2022/04/10 12:24:57;;;;;;;3.78;1.52;;;24.30;33.00;;;;;;5002544;28;20905;-63
2022/04/10 12:27:23;;;;;;;3.50;1.45;;;24.20;32.90;;;;;;5003572;28;20424;-63
2022/04/10 12:29:49;;;;;;;3.90;1.70;;;24.20;33.00;;;;;;5005145;28;20459;-64
2022/04/10 12:32:16;;;;;;;3.60;1.80;;;24.10;33.00;;;;;;5006578;28;20533;-63
2022/04/10 12:34:42;;;;;;;3.80;1.80;;;24.00;33.00;;;;;;5001558;28;20387;-63
2022/04/10 12:37:10;;;;;;;4.97;2.00;;;23.90;33.00;;;;;;4997877;28;20754;-63
2022/04/10 12:39:36;;;;;;;5.60;2.00;;;23.90;33.10;;;;;;5006342;28;20399;-63
2022/04/10 12:42:07;;;;;;;4.93;1.98;;;23.90;33.20;;;;;;5012166;28;20396;-63
2022/04/10 12:44:36;;;;;;;3.28;2.00;;;23.80;33.00;;;;;;4998050;28;20381;-63
2022/04/10 12:47:02;;;;;;;3.30;1.95;;;23.90;33.10;;;;;;5003708;28;20425;-63
2022/04/10 12:49:27;;;;;;;4.18;2.20;;;24.00;33.20;;;;;;5005220;28;20874;-63